Time;durP1;ratioP1;P1;durP2;ratioP2;P2;SDS_P1;SDS_P2;PMS_P1;PMS_P2;Temp;Humidity;BMP_temperature;BMP_pressure;BME280_temperature;BME280_humidity;BME280_pressure;Samples;Min_cycle;Max_cycle;Signal;HPM_P1;HPM_P2
2023/03/28 00:00:11;;;;;;;6.07;1.10;;;2.70;99.90;;;;;;5010657;28;20335;-78
2023/03/28 00:02:36;;;;;;;6.82;1.48;;;2.70;99.90;;;;;;5010657;28;20038;-78
2023/03/28 00:05:03;;;;;;;10.98;1.60;;;3.40;99.90;;;;;;5010563;28;20371;-79
2023/03/28 00:07:29;;;;;;;6.90;1.48;;;2.60;99.90;;;;;;5010476;28;20038;-78
2023/03/28 00:09:58;;;;;;;6.43;1.42;;;2.60;99.90;;;;;;5010295;28;20497;-79
2023/03/28 00:12:24;;;;;;;8.20;1.33;;;2.60;99.90;;;;;;4995160;28;20037;-78
2023/03/28 00:14:49;;;;;;;4.32;1.05;;;3.10;99.90;;;;;;5010673;28;20049;-78
2023/03/28 00:17:16;;;;;;;10.55;1.50;;;2.60;99.90;;;;;;5010952;28;20088;-78
2023/03/28 00:19:45;;;;;;;3.97;1.33;;;3.20;99.90;;;;;;5010304;28;20041;-78
2023/03/28 00:22:12;;;;;;;7.88;1.20;;;2.50;99.90;;;;;;5010757;28;20406;-78
2023/03/28 00:24:37;;;;;;;12.73;1.50;;;2.50;99.90;;;;;;5010541;28;20053;-79
2023/03/28 00:27:05;;;;;;;6.80;1.30;;;3.20;99.90;;;;;;5007781;28;20041;-78
2023/03/28 00:29:32;;;;;;;5.55;1.48;;;2.70;99.90;;;;;;4994215;28;20080;-78
2023/03/28 00:31:58;;;;;;;5.00;1.20;;;2.60;99.90;;;;;;5009869;28;20057;-78
2023/03/28 00:34:24;;;;;;;8.02;1.60;;;2.50;99.90;;;;;;5010499;28;20046;-78
2023/03/28 00:36:52;;;;;;;8.48;1.63;;;2.50;99.90;;;;;;5009702;28;20034;-78
2023/03/28 00:39:18;;;;;;;5.90;1.38;;;3.00;99.90;;;;;;4978332;28;20038;-79
2023/03/28 00:41:44;;;;;;;8.00;1.58;;;2.40;99.90;;;;;;4993777;28;20100;-78
2023/03/28 00:45:02;;;;;;;8.63;1.40;;;2.40;99.90;;;;;;5009756;28;20038;-78
2023/03/28 00:47:36;;;;;;;10.07;1.38;;;2.40;99.90;;;;;;4987040;28;20049;-78
2023/03/28 00:50:10;;;;;;;11.52;1.58;;;2.40;99.90;;;;;;5009483;28;20096;-78
2023/03/28 00:53:03;;;;;;;6.80;1.40;;;2.30;99.90;;;;;;5009943;28;20030;-78
2023/03/28 00:55:40;;;;;;;3.70;0.93;;;2.30;99.90;;;;;;5009778;28;20042;-78
2023/03/28 00:58:08;;;;;;;;;;;3.50;99.90;;;;;;5009935;28;20053;-78
2023/03/28 01:00:35;;;;;;;8.32;1.50;;;3.10;99.90;;;;;;5009667;28;19921;-78
2023/03/28 01:03:01;;;;;;;;;;;2.30;99.90;;;;;;5010131;28;20057;-78
2023/03/28 01:05:31;;;;;;;11.93;1.63;;;3.00;99.90;;;;;;5009831;28;19917;-78
2023/03/28 01:08:04;;;;;;;11.23;1.65;;;2.20;99.90;;;;;;5009481;28;20386;-78
2023/03/28 01:10:31;;;;;;;5.82;1.58;;;2.20;99.90;;;;;;5009787;28;20045;-78
2023/03/28 01:12:58;;;;;;;7.07;1.67;;;2.20;99.90;;;;;;5009544;28;20038;-79
2023/03/28 01:15:23;;;;;;;;;;;2.10;99.90;;;;;;5011995;28;20045;-78
2023/03/28 01:17:49;;;;;;;10.65;1.67;;;2.10;99.90;;;;;;4992918;28;20044;-78
2023/03/28 01:20:28;;;;;;;7.95;1.63;;;2.20;99.90;;;;;;5006778;28;20049;-78
2023/03/28 01:23:12;;;;;;;8.02;1.85;;;2.10;99.90;;;;;;4992668;28;20038;-78
2023/03/28 01:25:59;;;;;;;10.38;1.92;;;2.10;99.90;;;;;;4991873;28;20073;-78
2023/03/28 01:28:31;;;;;;;;;;;2.00;99.90;;;;;;4992856;28;20091;-79
2023/03/28 01:31:40;;;;;;;7.38;1.48;;;2.00;99.90;;;;;;5007805;28;19928;-79
2023/03/28 01:34:43;;;;;;;10.07;1.75;;;2.00;99.90;;;;;;5005827;28;20091;-78
2023/03/28 01:37:18;;;;;;;8.35;1.77;;;2.00;99.90;;;;;;4989991;28;20034;-78
2023/03/28 01:39:50;;;;;;;3.08;1.45;;;2.00;99.90;;;;;;5008922;28;20056;-78
2023/03/28 01:42:31;;;;;;;8.13;1.75;;;1.90;99.90;;;;;;5008840;28;20046;-79
2023/03/28 01:45:24;;;;;;;10.32;1.38;;;1.90;99.90;;;;;;4992724;28;20395;-78
2023/03/28 01:48:10;;;;;;;10.20;1.73;;;2.30;99.90;;;;;;4991091;28;20045;-78
2023/03/28 01:50:48;;;;;;;4.60;1.48;;;1.90;99.90;;;;;;5009019;28;20046;-78
2023/03/28 01:53:26;;;;;;;7.35;1.10;;;2.90;99.90;;;;;;5008760;28;20079;-78
2023/03/28 01:56:12;;;;;;;9.73;1.30;;;1.90;99.90;;;;;;5009016;28;20039;-78
2023/03/28 01:59:06;;;;;;;9.77;1.80;;;1.90;99.90;;;;;;5009407;28;20117;-78
2023/03/28 02:01:48;;;;;;;5.30;1.35;;;1.90;99.90;;;;;;5011424;28;20175;-78
2023/03/28 02:04:19;;;;;;;9.82;1.48;;;1.90;99.90;;;;;;5011295;28;20059;-78
2023/03/28 02:06:48;;;;;;;6.60;1.40;;;3.00;99.90;;;;;;4996560;28;20042;-78
2023/03/28 02:09:17;;;;;;;9.60;1.63;;;1.80;99.90;;;;;;4996893;28;20092;-78
2023/03/28 02:11:46;;;;;;;7.35;1.30;;;1.80;99.90;;;;;;5012627;28;20045;-78
2023/03/28 02:14:21;;;;;;;6.40;1.27;;;1.90;99.90;;;;;;5012243;28;20050;-78
2023/03/28 02:16:52;;;;;;;11.00;1.75;;;1.80;99.90;;;;;;4996516;28;20045;-78
2023/03/28 02:19:23;;;;;;;8.93;2.58;;;3.00;99.90;;;;;;5012500;28;20054;-78
2023/03/28 02:22:07;;;;;;;7.32;1.45;;;1.80;99.90;;;;;;5010300;28;20038;-78
2023/03/28 02:24:33;;;;;;;11.32;1.65;;;2.30;99.90;;;;;;5010781;28;20046;-78
2023/03/28 02:26:59;;;;;;;6.65;1.50;;;1.70;99.90;;;;;;4996319;28;20397;-78
2023/03/28 02:29:27;;;;;;;3.25;0.90;;;2.60;99.90;;;;;;4996168;28;20038;-78
2023/03/28 02:31:53;;;;;;;7.53;1.15;;;1.70;99.90;;;;;;5012792;28;20529;-78
2023/03/28 02:34:18;;;;;;;12.27;1.92;;;2.60;99.90;;;;;;4996003;28;20049;-78
2023/03/28 02:37:06;;;;;;;5.50;1.33;;;1.80;99.90;;;;;;5012552;28;20041;-78
2023/03/28 02:40:06;;;;;;;2.97;1.10;;;1.70;99.90;;;;;;5012043;28;20316;-78
2023/03/28 02:42:52;;;;;;;7.63;1.40;;;1.70;99.90;;;;;;5012488;28;20544;-78
2023/03/28 02:45:46;;;;;;;7.38;1.45;;;1.70;99.90;;;;;;5012039;28;20053;-78
2023/03/28 02:48:24;;;;;;;5.85;1.15;;;1.60;99.90;;;;;;5011220;28;20046;-78
2023/03/28 02:51:06;;;;;;;13.25;2.15;;;1.70;99.90;;;;;;5012951;28;20518;-78
2023/03/28 02:53:53;;;;;;;10.55;1.38;;;1.70;99.90;;;;;;4996005;28;20100;-79
2023/03/28 02:56:40;;;;;;;5.57;2.07;;;1.60;99.90;;;;;;5012084;28;20459;-78
2023/03/28 02:59:15;;;;;;;8.18;1.50;;;1.60;99.90;;;;;;5009370;28;20486;-78
2023/03/28 03:01:42;;;;;;;5.13;1.42;;;1.70;99.90;;;;;;5010970;28;20034;-78
2023/03/28 03:04:08;;;;;;;7.97;1.65;;;1.60;99.90;;;;;;4995160;28;20065;-78
2023/03/28 03:06:35;;;;;;;10.13;1.80;;;1.60;99.90;;;;;;4995833;28;20119;-78
2023/03/28 03:09:03;;;;;;;7.28;1.83;;;1.60;99.90;;;;;;5012020;28;20042;-78
2023/03/28 03:11:29;;;;;;;6.65;1.42;;;1.60;99.90;;;;;;4970848;28;20430;-79
2023/03/28 03:13:56;;;;;;;7.60;1.50;;;2.70;99.90;;;;;;5011965;28;20044;-78
2023/03/28 03:16:22;;;;;;;;;;;1.60;99.90;;;;;;4995765;28;20128;-78
2023/03/28 03:18:48;;;;;;;6.55;1.60;;;1.50;99.90;;;;;;5011478;28;19928;-78
2023/03/28 03:21:14;;;;;;;11.30;1.83;;;1.50;99.90;;;;;;5013172;28;20038;-82
2023/03/28 03:23:40;;;;;;;10.25;1.73;;;2.00;99.90;;;;;;4996804;28;20034;-82
2023/03/28 03:26:06;;;;;;;8.20;1.42;;;1.50;99.90;;;;;;4997074;28;20096;-82
2023/03/28 03:28:32;;;;;;;4.75;1.90;;;2.50;99.90;;;;;;5013220;28;20125;-81
2023/03/28 03:30:57;;;;;;;9.35;1.58;;;1.70;99.90;;;;;;4996717;28;20522;-82
2023/03/28 03:33:23;;;;;;;6.72;1.55;;;1.40;99.90;;;;;;4996535;28;20541;-81
2023/03/28 03:35:50;;;;;;;5.63;1.42;;;1.40;99.90;;;;;;5013333;28;20036;-81
2023/03/28 03:38:16;;;;;;;7.22;1.50;;;2.50;99.90;;;;;;5013018;28;20545;-81
2023/03/28 03:40:41;;;;;;;12.38;1.88;;;1.40;99.90;;;;;;4980352;28;20050;-81
2023/03/28 03:43:07;;;;;;;3.30;1.47;;;1.40;99.90;;;;;;4996721;28;20038;-81
2023/03/28 03:45:33;;;;;;;7.72;1.73;;;1.30;99.90;;;;;;4997158;28;20312;-81
2023/03/28 03:47:58;;;;;;;5.60;1.25;;;1.30;99.90;;;;;;5012973;28;20034;-81
2023/03/28 03:50:24;;;;;;;11.88;1.60;;;1.30;99.90;;;;;;4996554;28;20053;-81
2023/03/28 03:52:50;;;;;;;8.40;1.65;;;2.50;99.90;;;;;;5012920;28;20131;-81
2023/03/28 03:55:15;;;;;;;8.03;1.60;;;1.30;99.90;;;;;;5012587;28;20506;-81
2023/03/28 03:57:41;;;;;;;9.32;1.52;;;1.20;99.90;;;;;;4996222;28;20296;-81
2023/03/28 04:00:11;;;;;;;8.95;1.50;;;1.30;99.90;;;;;;5012577;28;20040;-81
2023/03/28 04:02:37;;;;;;;9.98;1.70;;;1.20;99.90;;;;;;4992562;28;20038;-81
2023/03/28 04:05:04;;;;;;;10.50;1.67;;;1.20;99.90;;;;;;4980502;28;20038;-81
2023/03/28 04:07:33;;;;;;;9.07;2.08;;;1.20;99.90;;;;;;5012875;28;20533;-81
2023/03/28 04:09:59;;;;;;;7.72;1.30;;;1.90;99.90;;;;;;5012464;28;20112;-81
2023/03/28 04:12:24;;;;;;;5.15;1.13;;;1.20;99.90;;;;;;5012835;28;20546;-81
2023/03/28 04:14:50;;;;;;;8.87;1.67;;;1.20;99.90;;;;;;4995440;28;20122;-81
2023/03/28 04:17:20;;;;;;;14.97;2.87;;;2.30;99.90;;;;;;4995835;28;20296;-81
2023/03/28 04:19:46;;;;;;;4.65;1.30;;;1.20;99.90;;;;;;5011873;28;20375;-80
2023/03/28 04:22:12;;;;;;;6.72;1.77;;;1.10;99.90;;;;;;4995524;28;20525;-80
2023/03/28 04:24:43;;;;;;;12.20;1.92;;;1.10;99.90;;;;;;4996005;28;20037;-81
2023/03/28 04:27:10;;;;;;;6.18;1.42;;;1.10;99.90;;;;;;4997117;28;20080;-81
2023/03/28 04:29:36;;;;;;;7.38;1.98;;;2.00;99.90;;;;;;5009641;28;20497;-79
2023/03/28 04:32:04;;;;;;;13.50;2.13;;;1.00;99.90;;;;;;5011329;28;20179;-80
2023/03/28 04:34:32;;;;;;;11.52;1.70;;;1.20;99.90;;;;;;5011677;28;20045;-80
2023/03/28 04:37:00;;;;;;;7.72;2.00;;;1.00;99.90;;;;;;5011478;28;20088;-79
2023/03/28 04:39:30;;;;;;;10.80;1.67;;;1.00;99.90;;;;;;5010907;28;20046;-78
2023/03/28 04:42:00;;;;;;;7.82;1.65;;;1.00;99.90;;;;;;5011206;28;20057;-79
2023/03/28 04:44:28;;;;;;;12.30;1.80;;;1.00;99.90;;;;;;5011230;28;20084;-79
2023/03/28 04:46:55;;;;;;;8.05;2.03;;;1.00;99.90;;;;;;5011357;28;20057;-80
2023/03/28 04:49:21;;;;;;;10.27;1.80;;;1.00;99.90;;;;;;5011206;28;20049;-79
2023/03/28 04:51:49;;;;;;;11.68;1.58;;;1.00;99.90;;;;;;4994195;28;20133;-80
2023/03/28 04:54:15;;;;;;;10.57;2.03;;;1.50;99.90;;;;;;5011057;28;20077;-80
2023/03/28 04:56:44;;;;;;;8.95;2.00;;;1.00;99.90;;;;;;5004961;28;20060;-81
2023/03/28 04:59:10;;;;;;;9.15;3.00;;;1.00;99.90;;;;;;5011967;28;20422;-80
2023/03/28 05:01:36;;;;;;;10.05;1.88;;;1.70;99.90;;;;;;5012097;28;20072;-80
2023/03/28 05:04:02;;;;;;;11.18;1.70;;;0.90;99.90;;;;;;5011710;28;20069;-80
2023/03/28 05:06:28;;;;;;;7.80;1.90;;;0.90;99.90;;;;;;5011398;28;20069;-80
2023/03/28 05:08:53;;;;;;;9.55;1.65;;;2.00;99.90;;;;;;5011515;28;20046;-80
2023/03/28 05:11:19;;;;;;;11.55;2.08;;;0.90;99.90;;;;;;5011688;28;20040;-80
2023/03/28 05:13:45;;;;;;;10.95;2.08;;;2.20;99.90;;;;;;5011839;28;20044;-81
2023/03/28 05:16:11;;;;;;;8.67;2.17;;;0.90;99.90;;;;;;4995476;28;20576;-81
2023/03/28 05:18:36;;;;;;;7.13;1.67;;;1.20;99.90;;;;;;5011208;28;20639;-81
2023/03/28 05:21:02;;;;;;;5.53;1.80;;;0.80;99.90;;;;;;5011882;28;20368;-80
2023/03/28 05:23:28;;;;;;;12.55;1.90;;;0.80;99.90;;;;;;4995137;28;20034;-81
2023/03/28 05:25:54;;;;;;;6.32;1.73;;;0.80;99.90;;;;;;5011098;28;20048;-81
2023/03/28 05:28:20;;;;;;;;;;;1.30;99.90;;;;;;4995322;28;20046;-80
2023/03/28 05:30:46;;;;;;;5.20;1.67;;;1.90;99.90;;;;;;4994883;28;19928;-80
2023/03/28 05:33:12;;;;;;;6.53;1.58;;;2.30;99.90;;;;;;4994770;28;20435;-79
2023/03/28 05:35:38;;;;;;;10.35;1.95;;;0.90;99.90;;;;;;5010946;28;20034;-80
2023/03/28 05:38:07;;;;;;;8.65;1.95;;;1.00;99.90;;;;;;5011746;28;20081;-80
2023/03/28 05:40:32;;;;;;;7.20;1.60;;;1.10;99.90;;;;;;5010806;28;20049;-80
2023/03/28 05:42:58;;;;;;;8.70;2.50;;;1.70;99.90;;;;;;5010884;28;20038;-81
2023/03/28 05:45:24;;;;;;;10.53;2.40;;;1.20;99.90;;;;;;5010777;28;20368;-80
2023/03/28 05:47:51;;;;;;;9.82;2.63;;;1.30;99.90;;;;;;4994540;28;20056;-81
2023/03/28 05:50:17;;;;;;;17.00;2.45;;;1.30;99.90;;;;;;5011024;28;20040;-81
2023/03/28 05:52:43;;;;;;;11.45;2.28;;;1.40;99.90;;;;;;5010850;28;20054;-81
2023/03/28 05:55:09;;;;;;;7.95;2.25;;;2.10;99.90;;;;;;5011036;28;20073;-81
2023/03/28 05:57:35;;;;;;;6.37;2.40;;;1.30;99.90;;;;;;5010720;28;20186;-80
2023/03/28 06:00:03;;;;;;;15.88;2.05;;;1.40;99.90;;;;;;4994375;28;20313;-81
2023/03/28 06:02:29;;;;;;;11.10;1.80;;;1.40;99.90;;;;;;4994361;28;20046;-81
2023/03/28 06:04:56;;;;;;;8.60;1.70;;;1.50;99.90;;;;;;5010881;28;20049;-81
2023/03/28 06:07:22;;;;;;;4.88;1.67;;;1.50;99.90;;;;;;5010647;28;20041;-81
2023/03/28 06:09:48;;;;;;;7.43;1.77;;;2.30;99.90;;;;;;5010908;28;20450;-81
2023/03/28 06:12:13;;;;;;;5.90;1.60;;;2.50;99.90;;;;;;5011016;28;20057;-81
2023/03/28 06:14:40;;;;;;;13.95;2.17;;;2.30;99.90;;;;;;4994406;28;20053;-81
2023/03/28 06:17:06;;;;;;;13.98;2.22;;;2.20;99.90;;;;;;5011602;28;20107;-81
2023/03/28 06:19:32;;;;;;;9.23;1.65;;;2.80;99.90;;;;;;5010573;28;20046;-81
2023/03/28 06:21:58;;;;;;;9.43;1.92;;;2.00;99.90;;;;;;4994783;28;20104;-81
2023/03/28 06:24:23;;;;;;;9.90;2.10;;;3.00;99.90;;;;;;5010815;28;20049;-81
2023/03/28 06:26:49;;;;;;;8.50;1.98;;;3.00;99.90;;;;;;5010799;28;20149;-81
2023/03/28 06:29:15;;;;;;;10.43;2.10;;;2.20;99.90;;;;;;5010885;28;20084;-81
2023/03/28 06:31:41;;;;;;;15.80;2.13;;;2.20;99.90;;;;;;5010551;28;20463;-81
2023/03/28 06:34:06;;;;;;;9.50;2.13;;;2.30;99.90;;;;;;5010631;28;20041;-81
2023/03/28 06:36:32;;;;;;;10.82;1.90;;;2.60;99.90;;;;;;5010780;28;20046;-81
2023/03/28 06:39:00;;;;;;;6.40;1.95;;;3.10;99.90;;;;;;5010201;28;20045;-81
2023/03/28 06:41:26;;;;;;;7.38;1.73;;;2.50;99.90;;;;;;5010384;28;20042;-81
2023/03/28 06:43:51;;;;;;;5.82;1.48;;;2.60;99.90;;;;;;4993977;28;20034;-82
2023/03/28 06:46:17;;;;;;;8.95;1.90;;;2.70;99.90;;;;;;5013936;28;20155;-81
2023/03/28 06:48:43;;;;;;;5.80;1.50;;;2.80;99.90;;;;;;5013856;28;20453;-81
2023/03/28 06:51:09;;;;;;;13.55;2.45;;;2.90;99.90;;;;;;4997608;28;20101;-82
2023/03/28 06:53:35;;;;;;;10.98;2.17;;;3.60;99.90;;;;;;5013705;28;20049;-81
2023/03/28 06:56:01;;;;;;;8.75;1.90;;;3.00;99.90;;;;;;5014249;28;20107;-82
2023/03/28 06:58:26;;;;;;;8.35;2.10;;;3.30;99.90;;;;;;5013558;28;20050;-81
2023/03/28 07:00:53;;;;;;;10.13;2.17;;;3.20;99.90;;;;;;5013873;28;20387;-81
2023/03/28 07:03:19;;;;;;;9.48;2.00;;;3.30;99.90;;;;;;5013526;28;20069;-82
2023/03/28 07:05:45;;;;;;;3.90;2.03;;;3.40;99.90;;;;;;5013534;28;20128;-81
2023/03/28 07:08:12;;;;;;;6.93;1.70;;;3.40;99.90;;;;;;5013623;28;20038;-81
2023/03/28 07:10:39;;;;;;;7.03;1.55;;;3.80;99.90;;;;;;5012843;28;20171;-82
2023/03/28 07:13:07;;;;;;;5.47;1.50;;;3.80;99.90;;;;;;5013138;28;20049;-82
2023/03/28 07:15:33;;;;;;;6.72;1.42;;;4.00;99.90;;;;;;5013045;28;20054;-82
2023/03/28 07:17:59;;;;;;;6.25;1.23;;;4.40;99.90;;;;;;5013889;28;20057;-82
2023/03/28 07:20:26;;;;;;;6.15;1.30;;;4.30;99.90;;;;;;5013537;28;20046;-82
2023/03/28 07:22:52;;;;;;;6.97;2.28;;;4.40;99.90;;;;;;4997028;28;20096;-82
2023/03/28 07:25:18;;;;;;;5.93;1.30;;;4.60;99.90;;;;;;5013836;28;20378;-82
2023/03/28 07:27:44;;;;;;;7.30;1.88;;;4.90;99.90;;;;;;5013065;28;20073;-82
2023/03/28 07:30:10;;;;;;;5.55;1.48;;;5.30;99.90;;;;;;5012721;28;20089;-82
2023/03/28 07:32:36;;;;;;;;;;;6.10;99.90;;;;;;5012739;28;20077;-82
2023/03/28 07:35:07;;;;;;;6.43;1.55;;;7.00;99.90;;;;;;4995964;28;19968;-82
2023/03/28 07:37:33;;;;;;;8.82;1.70;;;7.50;99.90;;;;;;5012272;28;20045;-82
2023/03/28 07:39:59;;;;;;;7.47;1.60;;;8.10;99.90;;;;;;5012126;28;20046;-83
2023/03/28 07:42:28;;;;;;;7.28;1.25;;;8.60;99.90;;;;;;5009630;28;20092;-82
2023/03/28 07:44:54;;;;;;;5.97;1.70;;;9.20;99.90;;;;;;5011734;28;20477;-83
2023/03/28 07:47:20;;;;;;;8.27;1.90;;;9.50;99.90;;;;;;5013181;28;20050;-83
2023/03/28 07:49:46;;;;;;;6.13;1.48;;;9.70;99.90;;;;;;4996222;28;20080;-83
2023/03/28 07:52:12;;;;;;;3.30;0.98;;;9.90;99.90;;;;;;5012670;28;20073;-83
2023/03/28 07:54:39;;;;;;;5.00;1.23;;;10.40;99.90;;;;;;5007327;28;20053;-83
2023/03/28 07:57:05;;;;;;;;;;;10.60;99.90;;;;;;4996302;28;20453;-82
2023/03/28 07:59:30;;;;;;;6.30;1.00;;;10.90;99.90;;;;;;5012644;28;19922;-83
2023/03/28 08:01:56;;;;;;;3.40;0.80;;;11.30;99.90;;;;;;5012585;28;20113;-83
2023/03/28 08:04:22;;;;;;;5.38;0.80;;;11.40;99.90;;;;;;5012676;28;20059;-83
2023/03/28 08:06:47;;;;;;;5.22;1.10;;;11.70;99.90;;;;;;5011579;28;20049;-81
2023/03/28 08:09:15;;;;;;;4.25;1.02;;;11.70;99.90;;;;;;5012520;28;20037;-83
2023/03/28 08:11:43;;;;;;;4.18;0.82;;;12.00;99.90;;;;;;5012028;28;20053;-82
2023/03/28 08:14:14;;;;;;;5.80;0.85;;;12.10;99.90;;;;;;5012472;28;20045;-82
2023/03/28 08:16:40;;;;;;;4.70;0.85;;;12.30;99.90;;;;;;5009997;28;20065;-83
2023/03/28 08:19:06;;;;;;;4.45;0.90;;;12.60;99.90;;;;;;5012296;28;20441;-83
2023/03/28 08:21:34;;;;;;;4.45;0.73;;;12.80;99.90;;;;;;5012049;28;20117;-82
2023/03/28 08:24:00;;;;;;;2.38;0.60;;;12.90;99.90;;;;;;5009816;28;20042;-82
2023/03/28 08:26:27;;;;;;;3.60;0.75;;;13.00;99.90;;;;;;4995687;28;20074;-82
2023/03/28 08:28:54;;;;;;;1.73;0.47;;;13.00;99.90;;;;;;4995702;28;20069;-82
2023/03/28 08:31:22;;;;;;;2.50;0.47;;;12.70;99.70;;;;;;5011854;28;20529;-82
2023/03/28 08:33:51;;;;;;;4.75;0.52;;;12.00;99.50;;;;;;5011697;28;20117;-82
2023/03/28 08:36:18;;;;;;;2.33;0.60;;;11.40;99.90;;;;;;4995947;28;20462;-82
2023/03/28 08:38:46;;;;;;;4.28;0.77;;;10.90;99.90;;;;;;5011295;28;20092;-82
2023/03/28 08:41:37;;;;;;;4.97;1.02;;;10.30;99.90;;;;;;5011758;28;20037;-82
2023/03/28 08:44:18;;;;;;;5.15;0.88;;;10.10;99.90;;;;;;5011417;28;20036;-82
2023/03/28 08:46:46;;;;;;;4.10;0.82;;;9.90;99.90;;;;;;5011172;28;20038;-82
2023/03/28 08:49:17;;;;;;;5.18;0.70;;;9.60;99.90;;;;;;5011610;28;20041;-82
2023/03/28 08:51:50;;;;;;;3.00;0.82;;;9.40;99.90;;;;;;4995527;28;20486;-82
2023/03/28 08:54:22;;;;;;;2.80;0.60;;;9.30;99.90;;;;;;4995228;28;20042;-82
2023/03/28 08:56:54;;;;;;;4.18;0.75;;;9.00;99.90;;;;;;5011277;28;20085;-82
2023/03/28 08:59:29;;;;;;;5.47;1.38;;;8.90;99.90;;;;;;5011566;28;20395;-82
2023/03/28 09:01:55;;;;;;;3.42;0.85;;;8.80;99.90;;;;;;4991116;28;20037;-82
2023/03/28 09:04:34;;;;;;;4.03;0.70;;;8.90;99.90;;;;;;4995731;28;20076;-82
2023/03/28 09:07:41;;;;;;;3.03;0.80;;;9.00;99.90;;;;;;5010273;28;20114;-82
2023/03/28 09:10:28;;;;;;;2.67;0.90;;;9.60;99.90;;;;;;5011645;28;20551;-82
2023/03/28 09:13:10;;;;;;;5.38;0.85;;;10.20;99.90;;;;;;5009568;28;20050;-82
2023/03/28 09:15:45;;;;;;;2.58;0.55;;;10.80;99.90;;;;;;4994898;28;20053;-83
2023/03/28 09:18:50;;;;;;;3.63;0.50;;;11.00;99.90;;;;;;5009388;28;20061;-83
2023/03/28 09:21:29;;;;;;;4.78;0.70;;;11.10;99.90;;;;;;5006260;28;20552;-82
2023/03/28 09:24:37;;;;;;;5.60;0.90;;;11.80;99.90;;;;;;5011206;28;20056;-82
2023/03/28 09:27:19;;;;;;;3.50;0.60;;;12.20;99.40;;;;;;4971009;28;20081;-82
2023/03/28 09:29:46;;;;;;;1.27;0.40;;;12.20;99.80;;;;;;5006188;28;20092;-82
2023/03/28 09:32:23;;;;;;;2.45;0.57;;;12.50;98.10;;;;;;4994919;28;20049;-83
2023/03/28 09:34:50;;;;;;;4.15;0.75;;;12.90;99.40;;;;;;5010501;28;20116;-82
2023/03/28 09:37:23;;;;;;;4.72;0.55;;;12.80;98.10;;;;;;5010791;28;20116;-82
2023/03/28 09:39:53;;;;;;;4.00;0.70;;;12.30;97.00;;;;;;4991765;28;20073;-82
2023/03/28 09:42:25;;;;;;;2.35;0.55;;;11.90;97.30;;;;;;5011058;28;20373;-82
2023/03/28 09:45:00;;;;;;;2.25;0.50;;;11.50;98.50;;;;;;5010201;28;20034;-82
2023/03/28 09:47:26;;;;;;;3.08;0.70;;;11.40;97.80;;;;;;5010999;28;20163;-83
2023/03/28 09:49:52;;;;;;;0.85;0.40;;;11.30;96.80;;;;;;4993943;28;20077;-83
2023/03/28 09:52:19;;;;;;;2.45;0.60;;;11.20;95.40;;;;;;5011087;28;20397;-83
2023/03/28 09:54:47;;;;;;;5.70;0.80;;;11.30;97.80;;;;;;4994057;28;20045;-83
2023/03/28 09:57:13;;;;;;;4.20;0.60;;;11.10;97.80;;;;;;5010865;28;20073;-83
2023/03/28 09:59:39;;;;;;;4.10;0.77;;;11.10;98.00;;;;;;4994047;28;20433;-83
2023/03/28 10:02:31;;;;;;;6.45;1.15;;;10.90;99.20;;;;;;5009940;28;20038;-83
2023/03/28 10:04:57;;;;;;;2.85;0.60;;;11.00;98.90;;;;;;5010302;28;20037;-83
2023/03/28 10:07:43;;;;;;;3.88;0.85;;;11.20;98.80;;;;;;5010433;28;20080;-83
2023/03/28 10:10:27;;;;;;;2.90;0.77;;;11.10;98.90;;;;;;5013035;28;20041;-83
2023/03/28 10:13:03;;;;;;;1.25;0.70;;;11.10;98.80;;;;;;5006718;28;20052;-83
2023/03/28 10:15:32;;;;;;;3.25;0.90;;;11.00;99.40;;;;;;5004328;28;20073;-83
2023/03/28 10:18:03;;;;;;;6.05;0.90;;;11.20;99.20;;;;;;5010610;28;20494;-83
2023/03/28 10:20:34;;;;;;;2.33;0.70;;;11.10;98.80;;;;;;5013465;28;20038;-83
2023/03/28 10:23:00;;;;;;;3.58;0.70;;;11.00;99.50;;;;;;5013756;28;20114;-83
2023/03/28 10:25:40;;;;;;;1.83;0.70;;;10.80;98.60;;;;;;5014408;28;20070;-83
2023/03/28 10:28:11;;;;;;;3.53;1.08;;;10.70;99.40;;;;;;5014157;28;20589;-83
2023/03/28 10:30:37;;;;;;;3.88;0.60;;;11.10;99.50;;;;;;4997685;28;20054;-83
2023/03/28 10:33:15;;;;;;;2.88;0.65;;;11.80;98.60;;;;;;5014178;28;20045;-83
2023/03/28 10:35:46;;;;;;;2.40;1.00;;;11.90;98.30;;;;;;5008416;28;20037;-83
2023/03/28 10:38:16;;;;;;;5.20;0.57;;;12.00;98.50;;;;;;5004890;28;20100;-84
2023/03/28 10:40:41;;;;;;;3.92;0.60;;;12.00;98.70;;;;;;5014045;28;20034;-83
2023/03/28 10:43:14;;;;;;;6.50;0.80;;;12.20;99.30;;;;;;5013172;28;20211;-82
2023/03/28 10:45:45;;;;;;;3.80;0.80;;;12.30;98.80;;;;;;5013491;28;20095;-82
2023/03/28 10:48:18;;;;;;;4.28;0.80;;;11.90;99.10;;;;;;5013001;28;20050;-83
2023/03/28 10:50:51;;;;;;;5.05;1.00;;;11.60;98.70;;;;;;5013140;28;20054;-83
2023/03/28 10:53:23;;;;;;;4.15;0.85;;;11.30;99.10;;;;;;5013286;28;20048;-83
2023/03/28 10:56:13;;;;;;;2.92;0.90;;;11.00;99.10;;;;;;5013495;28;20053;-83
2023/03/28 10:59:13;;;;;;;3.33;0.80;;;10.80;99.90;;;;;;5013823;28;20037;-81
2023/03/28 11:01:57;;;;;;;2.67;1.00;;;11.00;99.70;;;;;;4988941;28;20074;-83
2023/03/28 11:04:37;;;;;;;3.38;1.10;;;10.90;99.20;;;;;;5013965;28;20038;-83
2023/03/28 11:07:20;;;;;;;2.72;0.88;;;10.80;99.90;;;;;;5013475;28;20406;-83
2023/03/28 11:10:03;;;;;;;4.97;1.40;;;10.70;99.80;;;;;;5010794;28;20045;-83
2023/03/28 11:12:28;;;;;;;5.78;0.90;;;10.60;99.90;;;;;;5013598;28;20080;-83
2023/03/28 11:15:11;;;;;;;5.00;1.40;;;10.60;99.90;;;;;;4996919;28;20092;-83
2023/03/28 11:17:58;;;;;;;3.53;1.33;;;10.70;99.90;;;;;;5004798;28;20485;-83
2023/03/28 11:20:38;;;;;;;5.75;1.13;;;10.80;99.90;;;;;;5010762;28;20057;-83
2023/03/28 11:23:25;;;;;;;4.00;1.15;;;10.90;99.90;;;;;;5013373;28;20532;-83
2023/03/28 11:26:18;;;;;;;2.45;0.95;;;11.00;99.50;;;;;;5010594;28;20052;-83
2023/03/28 11:29:26;;;;;;;9.50;1.55;;;11.00;99.50;;;;;;5012652;28;20414;-83
2023/03/28 11:32:12;;;;;;;7.43;1.50;;;11.30;99.90;;;;;;5001815;28;20057;-82
2023/03/28 11:35:02;;;;;;;5.28;1.30;;;11.50;97.80;;;;;;5009368;28;20041;-83
2023/03/28 11:37:36;;;;;;;4.70;1.50;;;11.60;99.80;;;;;;5012763;28;20042;-83
2023/03/28 11:40:10;;;;;;;6.32;1.45;;;11.70;98.60;;;;;;5012604;28;20100;-83
2023/03/28 11:42:44;;;;;;;3.20;1.05;;;12.10;97.50;;;;;;5012907;28;20409;-83
2023/03/28 11:45:31;;;;;;;2.55;1.30;;;12.30;98.20;;;;;;5012933;28;20461;-84
2023/03/28 11:48:05;;;;;;;4.15;1.40;;;12.60;97.50;;;;;;5010758;28;20546;-84
2023/03/28 11:50:43;;;;;;;2.60;1.23;;;12.70;98.90;;;;;;5012691;28;20045;-83
2023/03/28 11:53:15;;;;;;;4.30;1.20;;;12.70;97.80;;;;;;5012758;28;20502;-83
2023/03/28 11:55:51;;;;;;;3.33;1.10;;;12.70;98.10;;;;;;5010625;28;20034;-84
2023/03/28 11:58:24;;;;;;;3.05;1.27;;;12.90;97.20;;;;;;5012186;28;20054;-83
2023/03/28 12:00:56;;;;;;;5.18;1.20;;;12.90;96.20;;;;;;5012254;28;20049;-83
2023/03/28 12:03:28;;;;;;;3.72;1.48;;;12.70;96.30;;;;;;4989500;28;20030;-83
2023/03/28 12:06:00;;;;;;;3.20;1.30;;;12.50;96.70;;;;;;5012636;28;20049;-84
2023/03/28 12:08:38;;;;;;;4.57;1.30;;;12.20;97.50;;;;;;5008078;28;20125;-83
2023/03/28 12:11:09;;;;;;;5.00;1.27;;;12.60;97.80;;;;;;5009808;28;20037;-83
2023/03/28 12:13:50;;;;;;;4.32;1.38;;;13.00;97.30;;;;;;5012085;28;20048;-84
2023/03/28 12:16:22;;;;;;;3.05;1.08;;;13.20;97.00;;;;;;5012127;28;20445;-81
2023/03/28 12:18:57;;;;;;;3.13;1.10;;;13.30;97.30;;;;;;4994084;28;20034;-84
2023/03/28 12:21:43;;;;;;;3.33;1.30;;;13.50;96.20;;;;;;5005248;28;20046;-83
2023/03/28 12:24:16;;;;;;;3.17;1.00;;;13.00;96.00;;;;;;4994301;28;20389;-83
2023/03/28 12:26:58;;;;;;;3.80;1.25;;;12.70;96.70;;;;;;5006821;28;20037;-83
2023/03/28 12:29:29;;;;;;;8.45;1.33;;;12.50;97.30;;;;;;4995632;28;20125;-83
2023/03/28 12:32:28;;;;;;;3.15;1.40;;;12.30;97.30;;;;;;5011438;28;20109;-83
2023/03/28 12:35:26;;;;;;;3.22;1.17;;;12.30;97.10;;;;;;4979312;28;20410;-84
2023/03/28 12:38:06;;;;;;;3.28;1.00;;;12.30;97.60;;;;;;4997144;28;20049;-83
2023/03/28 12:40:53;;;;;;;4.40;1.40;;;12.70;97.00;;;;;;5006370;28;20061;-83
2023/03/28 12:43:25;;;;;;;4.03;1.33;;;12.70;96.60;;;;;;5009436;28;20124;-83
2023/03/28 12:45:56;;;;;;;3.25;1.52;;;12.60;97.00;;;;;;5011932;28;20041;-84
2023/03/28 12:48:43;;;;;;;2.58;1.27;;;12.50;97.10;;;;;;5002042;28;20100;-83
2023/03/28 12:51:19;;;;;;;4.13;1.57;;;12.80;96.80;;;;;;5005111;28;20471;-84
2023/03/28 12:54:18;;;;;;;2.70;1.02;;;13.00;95.60;;;;;;4993498;28;20282;-83
2023/03/28 12:57:02;;;;;;;5.45;1.80;;;13.10;95.90;;;;;;5007532;28;20037;-84
2023/03/28 12:59:37;;;;;;;4.80;1.20;;;13.10;95.60;;;;;;5010901;28;20053;-83
2023/03/28 13:02:27;;;;;;;6.25;1.73;;;12.90;95.60;;;;;;5009597;28;20089;-84
2023/03/28 13:05:23;;;;;;;4.63;1.10;;;12.80;95.70;;;;;;4994121;28;20454;-83
2023/03/28 13:08:15;;;;;;;4.00;1.42;;;12.60;96.10;;;;;;5011129;28;20107;-83
2023/03/28 13:10:59;;;;;;;3.72;1.38;;;12.30;96.60;;;;;;4983168;28;20128;-83
2023/03/28 13:13:52;;;;;;;5.03;1.33;;;12.30;96.10;;;;;;5010579;28;20061;-84
2023/03/28 13:16:44;;;;;;;4.30;1.38;;;12.40;96.00;;;;;;5009789;28;20137;-84
2023/03/28 13:19:13;;;;;;;3.13;1.27;;;12.70;96.10;;;;;;5009360;28;20058;-84